createdAt,value
2019-05-18T00:01:52.670Z,21.37
2019-05-18T00:04:22.249Z,23.00
2019-05-18T00:06:51.724Z,22.15
2019-05-18T00:09:21.230Z,22.05
2019-05-18T00:11:50.881Z,21.50
2019-05-18T00:14:20.394Z,23.15
2019-05-18T00:16:49.856Z,20.72
2019-05-18T00:19:19.425Z,20.92
2019-05-18T00:21:48.964Z,21.00
2019-05-18T00:24:18.644Z,20.68
2019-05-18T00:26:48.141Z,21.87
2019-05-18T00:29:18.477Z,21.27
2019-05-18T00:31:47.877Z,22.05
2019-05-18T00:34:17.571Z,22.98
2019-05-18T00:36:47.030Z,24.90
2019-05-18T00:39:16.533Z,21.62
2019-05-18T00:41:46.069Z,21.37
2019-05-18T00:44:15.575Z,19.40
2019-05-18T00:46:45.113Z,19.77
2019-05-18T00:49:16.032Z,20.92
2019-05-18T00:54:14.174Z,19.73
2019-05-18T00:56:43.744Z,21.37
2019-05-18T00:59:15.993Z,18.82
2019-05-18T01:01:44.410Z,19.20
2019-05-18T01:04:13.981Z,19.17
2019-05-18T01:06:43.471Z,21.90
2019-05-18T01:09:13.002Z,20.25
2019-05-18T01:11:42.553Z,20.63
2019-05-18T01:14:12.013Z,19.65
2019-05-18T01:16:41.537Z,22.70
2019-05-18T01:19:11.047Z,21.75
2019-05-18T01:21:40.590Z,21.00
2019-05-18T01:24:10.767Z,22.07
2019-05-18T01:26:40.310Z,17.55
2019-05-18T01:29:10.001Z,17.42
2019-05-18T01:31:39.477Z,18.98
2019-05-18T01:34:09.092Z,18.10
2019-05-18T01:36:38.559Z,19.30
2019-05-18T01:39:08.450Z,20.92
2019-05-18T01:41:37.965Z,18.23
2019-05-18T01:44:07.496Z,18.27
2019-05-18T01:46:37.016Z,19.20
2019-05-18T01:49:06.531Z,20.43
2019-05-18T01:51:36.037Z,19.52
2019-05-18T01:54:05.504Z,18.48
2019-05-18T01:56:34.994Z,16.45
2019-05-18T01:59:04.476Z,15.85
2019-05-18T02:01:34.910Z,17.30
2019-05-18T02:04:05.434Z,18.87
2019-05-18T02:06:35.050Z,18.98
2019-05-18T02:09:07.290Z,18.70
2019-05-18T02:11:37.253Z,16.90
2019-05-18T02:14:06.836Z,15.10
2019-05-18T02:16:36.313Z,12.88
2019-05-18T02:19:05.895Z,12.03
2019-05-18T02:21:35.402Z,11.20
2019-05-18T02:24:04.933Z,12.30
2019-05-18T02:26:35.054Z,17.00
2019-05-18T02:29:04.582Z,14.55
2019-05-18T02:31:35.075Z,12.98
2019-05-18T02:34:04.785Z,15.38
2019-05-18T02:36:35.054Z,15.06
2019-05-18T02:39:07.549Z,15.08
2019-05-18T02:41:37.338Z,16.65
2019-05-18T02:44:06.974Z,13.62
2019-05-18T02:46:36.477Z,9.30
2019-05-18T02:49:06.060Z,12.55
2019-05-18T02:51:35.590Z,14.87
2019-05-18T02:54:05.344Z,13.13
2019-05-18T02:56:35.358Z,17.37
2019-05-18T02:59:05.717Z,18.20
2019-05-18T03:01:35.225Z,19.48
2019-05-18T03:04:04.815Z,18.07
2019-05-18T03:06:36.195Z,19.40
2019-05-18T03:09:06.830Z,20.02
2019-05-18T03:11:37.973Z,15.65
2019-05-18T03:14:07.619Z,16.60
2019-05-18T03:16:37.154Z,20.60
2019-05-18T03:19:08.764Z,20.37
2019-05-18T03:21:37.786Z,21.05
2019-05-18T03:24:07.323Z,21.73
2019-05-18T03:26:36.777Z,21.23
2019-05-18T03:29:06.268Z,24.43
2019-05-18T03:31:35.734Z,12.00
2019-05-18T03:34:05.302Z,5.53
2019-05-18T03:36:35.095Z,4.10
2019-05-18T03:39:05.720Z,4.45
2019-05-18T03:41:35.340Z,4.95
2019-05-18T03:44:06.628Z,7.35
2019-05-18T03:46:37.081Z,6.05
2019-05-18T03:49:23.543Z,5.10
2019-05-18T03:51:37.646Z,4.80
2019-05-18T03:54:07.212Z,5.12
2019-05-18T03:56:36.809Z,5.47
2019-05-18T03:59:06.290Z,6.10
2019-05-18T04:01:35.788Z,6.22
2019-05-18T04:04:05.353Z,5.60
2019-05-18T04:06:35.045Z,7.28
2019-05-18T04:09:06.090Z,7.55
2019-05-18T04:11:35.700Z,8.00
2019-05-18T04:14:08.139Z,7.10
2019-05-18T04:16:36.354Z,6.10
2019-05-18T04:19:05.950Z,7.42
2019-05-18T04:21:35.433Z,7.90
2019-05-18T04:24:04.969Z,10.35
2019-05-18T04:26:35.102Z,10.90
2019-05-18T04:29:04.740Z,9.20
2019-05-18T04:31:35.268Z,9.20
2019-05-18T04:34:04.727Z,11.30
2019-05-18T04:36:35.178Z,10.95
2019-05-18T04:39:06.527Z,9.95
2019-05-18T04:41:36.028Z,12.98
2019-05-18T04:44:05.554Z,12.40
2019-05-18T04:46:35.129Z,13.95
2019-05-18T04:49:04.683Z,13.05
2019-05-18T04:51:35.093Z,14.28
2019-05-18T04:54:04.664Z,13.65
2019-05-18T04:56:35.207Z,12.80
2019-05-18T04:59:04.787Z,13.03
2019-05-18T05:01:36.739Z,15.13
2019-05-18T05:04:06.375Z,12.13
2019-05-18T05:06:35.865Z,13.48
2019-05-18T05:09:07.488Z,14.43
2019-05-18T05:11:36.936Z,13.70
2019-05-18T05:14:06.524Z,15.45
2019-05-18T05:16:42.336Z,15.15
2019-05-18T05:19:11.904Z,15.90
2019-05-18T05:21:41.395Z,14.73
2019-05-18T05:24:11.176Z,14.28
2019-05-18T05:26:40.689Z,14.33
2019-05-18T05:29:10.250Z,14.87
2019-05-18T05:31:39.699Z,15.08
2019-05-18T05:34:10.889Z,19.07
2019-05-18T05:36:40.442Z,22.77
2019-05-18T05:39:10.046Z,26.48
2019-05-18T05:41:39.641Z,32.10
2019-05-18T05:44:09.245Z,27.90
2019-05-18T05:46:38.732Z,34.08
2019-05-18T05:49:08.309Z,33.55
2019-05-18T05:51:37.876Z,36.00
2019-05-18T05:54:07.340Z,30.95
2019-05-18T05:56:36.850Z,31.77
2019-05-18T05:59:06.394Z,33.13
2019-05-18T06:01:36.913Z,35.15
2019-05-18T06:04:06.423Z,35.45
2019-05-18T06:06:36.074Z,35.13
2019-05-18T06:09:07.238Z,31.35
2019-05-18T06:11:36.781Z,32.98
2019-05-18T06:14:06.359Z,33.05
2019-05-18T06:16:35.803Z,33.80
2019-05-18T06:19:05.307Z,32.17
2019-05-18T06:21:35.190Z,32.28
2019-05-18T06:24:06.601Z,33.50
2019-05-18T06:26:36.127Z,32.30
2019-05-18T06:29:05.604Z,30.95
2019-05-18T06:31:35.162Z,28.92
2019-05-18T06:34:04.701Z,29.42
2019-05-18T06:36:35.154Z,29.00
2019-05-18T06:39:07.496Z,26.73
2019-05-18T06:41:36.964Z,25.20
2019-05-18T06:44:06.623Z,26.02
2019-05-18T06:46:36.100Z,27.70
2019-05-18T06:49:07.177Z,27.70
2019-05-18T06:51:36.667Z,23.47
2019-05-18T06:54:06.320Z,23.90
2019-05-18T06:56:37.029Z,22.60
2019-05-18T06:59:07.253Z,23.65
2019-05-18T07:01:36.774Z,24.07
2019-05-18T07:04:06.266Z,23.07
2019-05-18T07:06:35.920Z,24.85
2019-05-18T07:09:13.215Z,22.55
2019-05-18T07:11:38.294Z,23.42
2019-05-18T07:14:07.797Z,22.48
2019-05-18T07:16:37.299Z,22.22
2019-05-18T07:19:06.780Z,20.97
2019-05-18T07:21:36.320Z,23.38
2019-05-18T07:24:05.860Z,24.80
2019-05-18T07:26:35.493Z,22.50
2019-05-18T07:29:05.803Z,23.98
2019-05-18T07:31:35.383Z,25.40
2019-05-18T07:34:04.912Z,24.63
2019-05-18T07:36:35.630Z,23.24
2019-05-18T07:39:06.371Z,23.50
2019-05-18T07:41:46.173Z,23.85
2019-05-18T07:44:07.002Z,23.40
2019-05-18T07:46:36.416Z,26.12
2019-05-18T07:49:06.095Z,25.25
2019-05-18T07:51:37.344Z,25.72
2019-05-18T07:54:06.857Z,24.23
2019-05-18T07:56:36.389Z,25.05
2019-05-18T07:59:05.980Z,24.92
2019-05-18T08:01:35.486Z,22.48
2019-05-18T08:04:05.151Z,20.80
2019-05-18T08:06:35.395Z,25.18
2019-05-18T08:09:07.130Z,21.27
2019-05-18T08:11:36.640Z,22.37
2019-05-18T08:14:06.137Z,23.67
2019-05-18T08:16:35.723Z,23.00
2019-05-18T08:19:05.310Z,22.80
2019-05-18T08:21:35.392Z,22.72
2019-05-18T08:24:05.300Z,23.35
2019-05-18T08:26:35.256Z,23.87
2019-05-18T08:29:04.902Z,21.55
2019-05-18T08:31:35.315Z,24.36
2019-05-18T08:34:04.892Z,20.05
2019-05-18T08:36:35.287Z,24.48
2019-05-18T08:39:06.273Z,23.07
2019-05-18T08:41:35.843Z,20.82
2019-05-18T08:44:05.343Z,22.90
2019-05-18T08:46:35.434Z,21.46
2019-05-18T08:49:06.545Z,19.40
2019-05-18T08:51:36.116Z,19.98
2019-05-18T08:54:05.718Z,21.95
2019-05-18T08:56:35.245Z,20.43
2019-05-18T08:59:04.854Z,19.80
2019-05-18T09:01:35.255Z,19.20
2019-05-18T09:04:04.931Z,18.32
2019-05-18T09:06:35.353Z,19.67
2019-05-18T09:09:06.474Z,18.80
2019-05-18T09:11:36.005Z,20.08
2019-05-18T09:14:05.543Z,18.77
2019-05-18T09:16:35.251Z,20.52
2019-05-18T09:19:04.754Z,20.17
2019-05-18T09:21:35.167Z,18.70
2019-05-18T09:24:04.729Z,19.02
2019-05-18T09:26:35.120Z,18.87
2019-05-18T09:29:04.854Z,19.77
2019-05-18T09:34:04.178Z,18.82
2019-05-18T09:36:33.699Z,19.92
2019-05-18T09:39:03.836Z,18.42
2019-05-18T09:41:33.479Z,17.60
2019-05-18T09:44:03.051Z,16.85
2019-05-18T09:46:32.722Z,17.40
2019-05-18T09:49:15.480Z,16.60
2019-05-18T09:51:45.102Z,16.87
2019-05-18T09:54:14.610Z,17.98
2019-05-18T09:56:44.336Z,16.67
2019-05-18T09:59:13.849Z,15.07
2019-05-18T10:01:43.647Z,14.98
2019-05-18T10:04:13.145Z,15.35
2019-05-18T10:06:42.700Z,13.57
2019-05-18T10:09:12.152Z,11.70
2019-05-18T10:11:41.799Z,13.93
2019-05-18T10:14:11.328Z,14.00
2019-05-18T10:16:40.784Z,13.10
2019-05-18T10:19:10.291Z,13.45
2019-05-18T10:21:39.862Z,11.15
2019-05-18T10:24:09.380Z,11.12
2019-05-18T10:26:38.876Z,11.12
2019-05-18T10:29:08.423Z,11.08
2019-05-18T10:31:37.904Z,10.40
2019-05-18T10:34:07.390Z,12.10
2019-05-18T10:36:41.257Z,10.48
2019-05-18T10:39:10.890Z,10.32
2019-05-18T10:41:40.460Z,9.90
2019-05-18T10:44:09.968Z,11.20
2019-05-18T10:46:39.508Z,10.43
2019-05-18T10:49:09.020Z,12.23
2019-05-18T10:51:38.512Z,11.93
2019-05-18T10:54:08.202Z,11.45
2019-05-18T10:56:37.720Z,12.58
2019-05-18T10:59:07.314Z,10.25
2019-05-18T11:01:36.904Z,10.47
2019-05-18T11:04:06.925Z,10.68
2019-05-18T11:06:36.622Z,10.48
2019-05-18T11:09:07.075Z,11.35
2019-05-18T11:11:36.926Z,11.65
2019-05-18T11:14:06.599Z,11.12
2019-05-18T11:16:37.169Z,11.25
2019-05-18T11:19:06.785Z,11.30
2019-05-18T11:21:36.331Z,10.87
2019-05-18T11:24:05.870Z,10.30
2019-05-18T11:26:35.465Z,12.20
2019-05-18T11:29:05.095Z,11.20
2019-05-18T11:31:35.487Z,10.93
2019-05-18T11:36:33.601Z,10.72
2019-05-18T11:39:03.429Z,10.43
2019-05-18T11:41:33.061Z,10.55
2019-05-18T11:44:03.127Z,9.80
2019-05-18T11:46:32.608Z,10.53
2019-05-18T11:49:02.045Z,10.03
2019-05-18T11:51:31.577Z,11.50
2019-05-18T11:54:01.093Z,11.47
2019-05-18T11:56:30.542Z,10.93
2019-05-18T11:59:00.056Z,12.33
2019-05-18T12:01:29.527Z,11.33
2019-05-18T12:03:59.050Z,13.17
2019-05-18T12:06:28.547Z,11.23
2019-05-18T12:08:58.700Z,10.33
2019-05-18T12:11:28.702Z,9.20
2019-05-18T12:13:59.551Z,10.93
2019-05-18T12:16:29.001Z,11.63
2019-05-18T12:18:59.650Z,11.60
2019-05-18T12:21:29.204Z,9.43
2019-05-18T12:24:14.153Z,7.83
2019-05-18T12:26:31.203Z,9.48
2019-05-18T12:29:00.791Z,9.03
2019-05-18T12:31:30.422Z,9.83
2019-05-18T12:34:00.022Z,7.80
2019-05-18T12:36:30.557Z,7.95
2019-05-18T12:39:00.154Z,12.90
2019-05-18T12:41:29.649Z,10.87
2019-05-18T12:44:00.633Z,9.47
2019-05-18T12:46:30.222Z,9.15
2019-05-18T12:48:59.713Z,10.35
2019-05-18T12:51:29.241Z,11.70
2019-05-18T12:53:58.803Z,10.45
2019-05-18T12:56:28.364Z,9.68
2019-05-18T12:58:57.937Z,9.25
2019-05-18T13:01:27.474Z,11.40
2019-05-18T13:03:57.153Z,12.35
2019-05-18T13:06:26.728Z,12.20
2019-05-18T13:08:56.275Z,11.97
2019-05-18T13:11:25.809Z,9.73
2019-05-18T13:13:55.468Z,9.45
2019-05-18T13:16:25.937Z,10.90
2019-05-18T13:18:55.493Z,12.45
2019-05-18T13:21:26.052Z,12.30
2019-05-18T13:23:55.709Z,11.18
2019-05-18T13:26:25.315Z,12.07
2019-05-18T13:28:54.861Z,11.83
2019-05-18T13:31:24.522Z,10.80
2019-05-18T13:33:55.204Z,12.88
2019-05-18T13:36:25.412Z,10.88
2019-05-18T13:38:54.916Z,10.30
2019-05-18T13:41:24.435Z,10.75
2019-05-18T13:43:54.122Z,13.33
2019-05-18T13:46:26.525Z,11.53
2019-05-18T13:48:56.139Z,11.12
2019-05-18T13:51:25.768Z,10.75
2019-05-18T13:53:56.722Z,11.73
2019-05-18T13:56:26.327Z,11.40
2019-05-18T14:01:24.544Z,11.57
2019-05-18T14:03:54.192Z,10.70
2019-05-18T14:06:23.907Z,9.03
2019-05-18T14:08:53.611Z,11.18
2019-05-18T14:11:23.157Z,9.23
2019-05-18T14:16:21.662Z,10.43
2019-05-18T14:18:51.208Z,11.43
2019-05-18T14:21:20.780Z,7.87
2019-05-18T14:23:50.484Z,7.15
2019-05-18T14:26:20.272Z,6.90
2019-05-18T14:31:18.609Z,7.17
2019-05-18T14:33:48.550Z,7.30
2019-05-18T14:36:18.065Z,7.08
2019-05-18T14:38:48.956Z,6.17
2019-05-18T14:41:19.168Z,9.45
2019-05-18T14:46:56.548Z,7.72
2019-05-18T14:49:27.049Z,8.33
2019-05-18T14:51:56.676Z,8.48
2019-05-18T14:54:26.196Z,8.18
2019-05-18T14:56:57.764Z,8.60
2019-05-18T14:59:26.934Z,8.68
2019-05-18T15:01:58.123Z,8.60
2019-05-18T15:04:27.630Z,7.15
2019-05-18T15:06:57.129Z,9.85
2019-05-18T15:09:26.669Z,10.72
2019-05-18T15:11:56.163Z,9.00
2019-05-18T15:14:29.463Z,10.83
2019-05-18T15:16:59.066Z,8.80
2019-05-18T15:19:28.707Z,9.68
2019-05-18T15:21:58.395Z,7.55
2019-05-18T15:24:27.981Z,9.30
2019-05-18T15:26:57.543Z,10.13
2019-05-18T15:29:27.138Z,9.77
2019-05-18T15:34:25.527Z,10.53
2019-05-18T15:36:55.161Z,10.00
2019-05-18T15:39:24.745Z,9.48
2019-05-18T15:41:54.239Z,9.10
2019-05-18T15:44:23.909Z,8.90
2019-05-18T15:46:53.454Z,9.95
2019-05-18T15:49:23.107Z,10.03
2019-05-18T15:51:52.629Z,8.40
2019-05-18T15:54:22.332Z,8.90
2019-05-18T15:56:51.893Z,9.78
2019-05-18T15:59:21.474Z,10.43
2019-05-18T16:01:50.997Z,10.50
2019-05-18T16:04:20.944Z,8.30
2019-05-18T16:06:50.659Z,11.85
2019-05-18T16:09:20.206Z,13.05
2019-05-18T16:11:49.709Z,70.47
2019-05-18T16:14:19.153Z,78.75
2019-05-18T16:19:18.336Z,17.70
2019-05-18T16:21:47.856Z,12.87
2019-05-18T16:24:17.464Z,13.57
2019-05-18T16:26:50.917Z,33.50
2019-05-18T16:29:20.419Z,17.25
2019-05-18T16:31:49.908Z,13.57
2019-05-18T16:34:22.254Z,10.43
2019-05-18T16:36:52.308Z,10.27
2019-05-18T16:39:21.902Z,16.10
2019-05-18T16:41:51.476Z,13.20
2019-05-18T16:44:20.942Z,11.90
2019-05-18T16:46:50.464Z,19.70
2019-05-18T16:49:20.024Z,16.77
2019-05-18T16:51:49.564Z,49.10
2019-05-18T16:54:19.113Z,10.93
2019-05-18T16:56:48.648Z,12.20
2019-05-18T16:59:18.140Z,11.40
2019-05-18T17:01:48.064Z,9.95
2019-05-18T17:04:17.894Z,8.63
2019-05-18T17:06:47.383Z,8.25
2019-05-18T17:09:18.025Z,9.80
2019-05-18T17:11:48.247Z,7.97
2019-05-18T17:14:18.870Z,9.43
2019-05-18T17:16:49.872Z,7.90
2019-05-18T17:19:19.368Z,7.75
2019-05-18T17:21:48.915Z,9.60
2019-05-18T17:24:18.596Z,8.93
2019-05-18T17:26:52.725Z,8.37
2019-05-18T17:29:19.342Z,8.15
2019-05-18T17:31:48.922Z,8.80
2019-05-18T17:34:18.570Z,10.35
2019-05-18T17:36:52.395Z,8.53
2019-05-18T17:39:20.223Z,9.38
2019-05-18T17:41:50.479Z,10.50
2019-05-18T17:44:21.653Z,9.65
2019-05-18T17:46:51.647Z,10.93
2019-05-18T17:49:26.915Z,10.95
2019-05-18T17:51:52.405Z,8.87
2019-05-18T17:54:21.908Z,8.90
2019-05-18T17:56:51.337Z,8.00
2019-05-18T17:59:20.930Z,8.53
2019-05-18T18:01:50.436Z,8.93
2019-05-18T18:04:19.956Z,8.48
2019-05-18T18:06:49.618Z,7.87
2019-05-18T18:09:19.657Z,7.45
2019-05-18T18:11:51.055Z,7.85
2019-05-18T18:14:23.369Z,6.87
2019-05-18T18:16:53.097Z,7.77
2019-05-18T18:19:22.695Z,8.38
2019-05-18T18:21:52.514Z,9.90
2019-05-18T18:24:21.959Z,9.20
2019-05-18T18:26:51.563Z,11.07
2019-05-18T18:29:21.197Z,13.15
2019-05-18T18:31:56.599Z,16.75
2019-05-18T18:34:26.187Z,17.52
2019-05-18T18:36:55.750Z,15.60
2019-05-18T18:39:25.278Z,17.37
2019-05-18T18:41:54.782Z,19.90
2019-05-18T18:44:24.275Z,18.12
2019-05-18T18:46:53.843Z,17.60
2019-05-18T18:49:23.600Z,17.15
2019-05-18T18:51:53.181Z,17.53
2019-05-18T18:54:22.782Z,17.95
2019-05-18T18:56:52.287Z,20.30
2019-05-18T18:59:21.831Z,20.68
2019-05-18T19:01:51.389Z,21.03
2019-05-18T19:04:20.958Z,20.12
2019-05-18T19:06:52.004Z,19.57
2019-05-18T19:09:21.611Z,19.67
2019-05-18T19:11:51.124Z,20.93
2019-05-18T19:14:20.621Z,21.27
2019-05-18T19:16:50.175Z,21.57
2019-05-18T19:19:19.673Z,21.87
2019-05-18T19:21:49.167Z,22.03
2019-05-18T19:24:18.664Z,23.45
2019-05-18T19:26:48.299Z,24.80
2019-05-18T19:29:17.809Z,24.85
2019-05-18T19:34:17.148Z,24.60
2019-05-18T19:36:46.675Z,25.95
2019-05-18T19:39:16.225Z,25.88
2019-05-18T19:41:45.749Z,25.92
2019-05-18T19:44:15.371Z,27.40
2019-05-18T19:46:44.895Z,26.63
2019-05-18T19:49:14.540Z,24.45
2019-05-18T19:51:44.164Z,26.00
2019-05-18T19:54:13.668Z,24.72
2019-05-18T19:56:44.245Z,24.20
2019-05-18T19:59:15.204Z,24.25
2019-05-18T20:04:13.538Z,23.40
2019-05-18T20:06:45.298Z,25.43
2019-05-18T20:09:14.780Z,24.23
2019-05-18T20:11:44.283Z,24.73
2019-05-18T20:14:13.850Z,25.45
2019-05-18T20:16:44.968Z,24.20
2019-05-18T20:19:14.484Z,24.15
2019-05-18T20:21:44.047Z,24.33
2019-05-18T20:24:13.600Z,25.27
2019-05-18T20:26:43.090Z,22.30
2019-05-18T20:29:12.574Z,23.77
2019-05-18T20:31:43.574Z,21.63
2019-05-18T20:34:14.255Z,23.85
2019-05-18T20:36:43.818Z,24.65
2019-05-18T20:39:13.286Z,24.23
2019-05-18T20:41:42.821Z,23.98
2019-05-18T20:44:12.272Z,24.43
2019-05-18T20:46:41.866Z,22.52
2019-05-18T20:49:11.369Z,26.42
2019-05-18T20:51:42.408Z,26.53
2019-05-18T20:54:12.059Z,27.52
2019-05-18T20:56:41.549Z,27.13
2019-05-18T20:59:11.153Z,29.10
2019-05-18T21:01:40.781Z,31.50
2019-05-18T21:04:10.289Z,31.33
2019-05-18T21:06:39.950Z,31.00
2019-05-18T21:09:09.551Z,33.13
2019-05-18T21:11:39.051Z,32.85
2019-05-18T21:14:08.575Z,34.90
2019-05-18T21:16:38.123Z,35.98
2019-05-18T21:19:09.209Z,35.98
2019-05-18T21:21:39.881Z,37.98
2019-05-18T21:24:09.401Z,37.55
2019-05-18T21:26:38.929Z,37.95
2019-05-18T21:29:08.788Z,38.58
2019-05-18T21:31:38.271Z,35.03
2019-05-18T21:34:07.880Z,40.40
2019-05-18T21:36:37.331Z,38.63
2019-05-18T21:39:07.822Z,37.85
2019-05-18T21:41:37.397Z,35.20
2019-05-18T21:44:06.931Z,36.70
2019-05-18T21:46:39.193Z,39.35
2019-05-18T21:49:08.981Z,40.08
2019-05-18T21:51:38.487Z,42.30
2019-05-18T21:54:07.949Z,37.80
2019-05-18T21:56:37.455Z,40.95
2019-05-18T21:59:12.009Z,41.37
2019-05-18T22:01:38.215Z,40.35
2019-05-18T22:06:37.596Z,40.08
2019-05-18T22:09:07.302Z,39.90
2019-05-18T22:11:36.872Z,39.25
2019-05-18T22:14:06.311Z,39.20
2019-05-18T22:16:35.807Z,40.50
2019-05-18T22:19:05.543Z,42.62
2019-05-18T22:21:35.919Z,42.08
2019-05-18T22:24:05.527Z,41.28
2019-05-18T22:26:35.845Z,40.36
2019-05-18T22:29:05.362Z,42.53
2019-05-18T22:31:35.813Z,42.83
2019-05-18T22:34:05.238Z,41.02
2019-05-18T22:36:34.737Z,42.93
2019-05-18T22:39:05.739Z,42.43
2019-05-18T22:41:36.812Z,45.38
2019-05-18T22:44:06.419Z,43.50
2019-05-18T22:46:36.509Z,46.73
2019-05-18T22:49:05.997Z,45.85
2019-05-18T22:51:35.940Z,47.68
2019-05-18T22:54:05.472Z,46.58
2019-05-18T22:56:35.881Z,45.48
2019-05-18T22:59:05.462Z,52.00
2019-05-18T23:01:37.454Z,44.63
2019-05-18T23:04:07.006Z,43.85
2019-05-18T23:06:36.499Z,47.53
2019-05-18T23:09:06.808Z,46.85
2019-05-18T23:11:36.324Z,45.88
2019-05-18T23:14:05.852Z,47.60
2019-05-18T23:16:36.955Z,48.24
2019-05-18T23:19:06.410Z,46.68
2019-05-18T23:21:35.905Z,46.85
2019-05-18T23:24:05.649Z,45.80
2019-05-18T23:26:35.956Z,48.34
2019-05-18T23:29:06.933Z,52.17
2019-05-18T23:31:36.440Z,49.98
2019-05-18T23:34:06.002Z,52.05
2019-05-18T23:36:36.061Z,47.42
2019-05-18T23:39:06.544Z,48.00
2019-05-18T23:41:36.208Z,49.98
2019-05-18T23:44:05.786Z,46.65
2019-05-18T23:46:35.880Z,50.28
2019-05-18T23:49:10.742Z,49.30
2019-05-18T23:51:36.469Z,50.50
2019-05-18T23:54:06.996Z,52.85
2019-05-18T23:56:36.537Z,49.60
2019-05-18T23:59:07.181Z,50.48
